createdAt,value
2022-09-13T00:00:03.199Z,2.90
2022-09-13T00:01:03.208Z,3.40
2022-09-13T00:02:03.168Z,3.00
2022-09-13T00:03:03.094Z,2.90
2022-09-13T00:04:03.049Z,2.90
2022-09-13T00:05:03.030Z,3.00
2022-09-13T00:06:02.976Z,2.90
2022-09-13T00:07:02.936Z,2.80
2022-09-13T00:08:02.902Z,3.20
2022-09-13T00:09:02.867Z,2.90
2022-09-13T00:10:02.827Z,3.10
2022-09-13T00:11:02.800Z,2.80
2022-09-13T00:12:02.755Z,3.10
2022-09-13T00:13:02.726Z,3.00
2022-09-13T00:14:02.677Z,3.10
2022-09-13T00:15:02.645Z,2.90
2022-09-13T00:16:02.672Z,3.20
2022-09-13T00:17:02.565Z,3.40
2022-09-13T00:18:02.528Z,3.20
2022-09-13T00:19:02.626Z,3.10
2022-09-13T00:20:02.467Z,2.90
2022-09-13T00:21:02.418Z,3.10
2022-09-13T00:22:02.384Z,3.00
2022-09-13T00:23:02.342Z,3.10
2022-09-13T00:24:02.303Z,3.00
2022-09-13T00:25:02.270Z,3.00
2022-09-13T00:26:02.242Z,3.10
2022-09-13T00:27:02.193Z,3.00
2022-09-13T00:28:02.157Z,3.00
2022-09-13T00:29:02.118Z,2.90
2022-09-13T00:30:02.102Z,2.90
2022-09-13T00:31:02.045Z,3.00
2022-09-13T00:32:02.092Z,2.70
2022-09-13T00:33:01.969Z,2.80
2022-09-13T00:34:01.933Z,2.90
2022-09-13T00:35:01.898Z,2.80
2022-09-13T00:36:01.856Z,3.00
2022-09-13T00:37:01.821Z,2.70
2022-09-13T00:38:01.795Z,3.00
2022-09-13T00:39:01.749Z,3.10
2022-09-13T00:40:01.763Z,2.90
2022-09-13T00:41:01.672Z,2.70
2022-09-13T00:42:01.645Z,3.00
2022-09-13T00:43:01.608Z,3.20
2022-09-13T00:44:01.573Z,3.00
2022-09-13T00:45:01.527Z,2.60
2022-09-13T00:46:01.560Z,2.90
2022-09-13T00:47:01.450Z,2.60
2022-09-13T00:48:01.412Z,3.10
2022-09-13T00:49:01.375Z,2.70
2022-09-13T00:50:01.351Z,3.20
2022-09-13T00:51:01.314Z,2.70
2022-09-13T00:52:01.261Z,3.00
2022-09-13T00:53:01.227Z,2.90
2022-09-13T00:54:01.190Z,2.80
2022-09-13T00:55:01.156Z,3.10
2022-09-13T00:56:01.113Z,2.90
2022-09-13T00:57:01.090Z,2.80
2022-09-13T00:58:01.040Z,3.20
2022-09-13T00:59:01.005Z,2.90
2022-09-13T01:00:00.965Z,3.00
2022-09-13T01:01:00.971Z,3.20
2022-09-13T01:02:00.926Z,2.90
2022-09-13T01:03:00.858Z,2.80
2022-09-13T01:04:00.817Z,2.90
2022-09-13T01:05:00.784Z,2.90
2022-09-13T01:06:00.745Z,2.90
2022-09-13T01:07:00.713Z,2.70
2022-09-13T01:08:00.681Z,2.90
2022-09-13T01:09:00.633Z,2.90
2022-09-13T01:10:00.596Z,2.70
2022-09-13T01:11:00.561Z,2.70
2022-09-13T01:12:00.527Z,2.90
2022-09-13T01:13:00.485Z,3.00
2022-09-13T01:14:00.458Z,2.90
2022-09-13T01:15:00.412Z,3.00
2022-09-13T01:16:00.451Z,2.80
2022-09-13T01:17:00.341Z,3.20
2022-09-13T01:18:00.418Z,2.80
2022-09-13T01:19:00.264Z,3.00
2022-09-13T01:20:00.232Z,2.70
2022-09-13T01:21:00.191Z,2.90
2022-09-13T01:22:00.151Z,2.80
2022-09-13T01:23:00.116Z,3.10
2022-09-13T01:24:00.092Z,2.90
2022-09-13T01:25:00.042Z,3.30
2022-09-13T01:26:00.003Z,3.20
2022-09-13T01:26:59.969Z,3.30
2022-09-13T01:27:59.930Z,3.20
2022-09-13T01:28:59.893Z,3.40
2022-09-13T01:29:59.865Z,2.90
2022-09-13T01:30:59.819Z,3.40
2022-09-13T01:31:59.831Z,3.00
2022-09-13T01:32:59.746Z,3.10
2022-09-13T01:33:59.706Z,3.10
2022-09-13T01:34:59.671Z,3.20
2022-09-13T01:35:59.647Z,3.20
2022-09-13T01:36:59.598Z,3.20
2022-09-13T01:37:59.558Z,3.10
2022-09-13T01:38:59.522Z,3.20
2022-09-13T01:39:59.546Z,3.10
2022-09-13T01:41:02.930Z,3.20
2022-09-13T01:41:59.409Z,3.10
2022-09-13T01:42:59.374Z,3.20
2022-09-13T01:43:59.336Z,3.50
2022-09-13T01:44:59.298Z,3.00
2022-09-13T01:45:59.289Z,3.50
2022-09-13T01:46:59.225Z,3.20
2022-09-13T01:47:59.186Z,3.30
2022-09-13T01:48:59.152Z,3.30
2022-09-13T01:49:59.111Z,3.20
2022-09-13T01:50:59.079Z,3.20
2022-09-13T01:51:59.050Z,3.30
2022-09-13T01:52:59.000Z,3.50
2022-09-13T01:53:58.963Z,3.00
2022-09-13T01:54:58.929Z,3.40
2022-09-13T01:56:08.378Z,3.20
2022-09-13T01:56:58.851Z,3.00
2022-09-13T01:57:58.824Z,3.60
2022-09-13T01:58:58.778Z,3.50
2022-09-13T01:59:58.740Z,3.30
2022-09-13T02:00:58.736Z,3.10
2022-09-13T02:01:58.695Z,3.20
2022-09-13T02:02:58.630Z,3.30
2022-09-13T02:03:58.602Z,3.20
2022-09-13T02:04:58.553Z,3.10
2022-09-13T02:05:58.516Z,3.20
2022-09-13T02:06:58.484Z,3.20
2022-09-13T02:07:58.441Z,3.30
2022-09-13T02:08:58.411Z,3.30
2022-09-13T02:09:58.379Z,3.30
2022-09-13T02:10:58.332Z,3.10
2022-09-13T02:11:58.292Z,3.20
2022-09-13T02:12:58.261Z,3.50
2022-09-13T02:13:58.217Z,3.10
2022-09-13T02:14:58.183Z,3.50
2022-09-13T02:15:58.157Z,3.50
2022-09-13T02:16:58.107Z,3.30
2022-09-13T02:17:58.069Z,3.40
2022-09-13T02:18:58.032Z,3.10
2022-09-13T02:19:57.992Z,3.40
2022-09-13T02:20:57.969Z,3.30
2022-09-13T02:21:57.922Z,3.40
2022-09-13T02:22:57.884Z,3.50
2022-09-13T02:23:57.948Z,3.20
2022-09-13T02:24:57.808Z,3.50
2022-09-13T02:25:57.784Z,3.50
2022-09-13T02:26:57.733Z,3.30
2022-09-13T02:27:57.696Z,3.20
2022-09-13T02:28:57.658Z,3.40
2022-09-13T02:29:57.620Z,3.30
2022-09-13T02:30:57.591Z,3.30
2022-09-13T02:31:57.604Z,3.50
2022-09-13T02:32:57.509Z,3.50
2022-09-13T02:33:57.484Z,3.20
2022-09-13T02:34:57.442Z,3.40
2022-09-13T02:35:57.396Z,3.30
2022-09-13T02:36:57.360Z,3.30
2022-09-13T02:37:57.323Z,3.30
2022-09-13T02:38:57.288Z,3.10
2022-09-13T02:39:57.321Z,3.40
2022-09-13T02:40:57.211Z,3.30
2022-09-13T02:41:57.175Z,3.40
2022-09-13T02:42:57.137Z,3.20
2022-09-13T02:43:57.099Z,3.20
2022-09-13T02:44:57.063Z,3.30
2022-09-13T02:45:57.080Z,3.70
2022-09-13T02:46:56.988Z,3.50
2022-09-13T02:47:56.952Z,3.40
2022-09-13T02:48:56.915Z,3.30
2022-09-13T02:49:56.875Z,3.50
2022-09-13T02:50:56.841Z,3.40
2022-09-13T02:51:56.814Z,3.10
2022-09-13T02:52:56.768Z,3.20
2022-09-13T02:53:56.730Z,3.30
2022-09-13T02:54:56.690Z,3.20
2022-09-13T02:55:56.651Z,3.30
2022-09-13T02:56:56.622Z,3.30
2022-09-13T02:57:56.591Z,3.60
2022-09-13T02:58:56.542Z,3.30
2022-09-13T02:59:56.502Z,3.40
2022-09-13T03:00:56.496Z,3.20
2022-09-13T03:01:56.467Z,3.40
2022-09-13T03:02:56.395Z,3.40
2022-09-13T03:03:56.363Z,3.00
2022-09-13T03:04:56.320Z,3.50
2022-09-13T03:05:56.280Z,3.10
2022-09-13T03:06:56.243Z,3.40
2022-09-13T03:07:56.204Z,3.30
2022-09-13T03:08:56.178Z,3.20
2022-09-13T03:09:56.129Z,3.50
2022-09-13T03:10:56.097Z,3.30
2022-09-13T03:11:56.053Z,3.20
2022-09-13T03:12:56.019Z,3.30
2022-09-13T03:13:55.984Z,3.30
2022-09-13T03:14:55.964Z,3.60
2022-09-13T03:15:55.908Z,3.20
2022-09-13T03:16:55.938Z,3.20
2022-09-13T03:17:55.831Z,3.30
2022-09-13T03:18:55.796Z,3.40
2022-09-13T03:19:55.772Z,3.60
2022-09-13T03:20:55.721Z,3.80
2022-09-13T03:21:55.687Z,3.70
2022-09-13T03:22:55.646Z,3.80
2022-09-13T03:23:55.612Z,3.80
2022-09-13T03:24:56.336Z,4.10
2022-09-13T03:25:55.548Z,4.00
2022-09-13T03:26:55.496Z,3.90
2022-09-13T03:27:55.461Z,4.00
2022-09-13T03:28:55.425Z,3.60
2022-09-13T03:29:55.385Z,3.90
2022-09-13T03:30:55.360Z,3.80
2022-09-13T03:31:55.349Z,3.70
2022-09-13T03:32:55.274Z,3.60
2022-09-13T03:33:55.238Z,4.30
2022-09-13T03:34:55.200Z,4.00
2022-09-13T03:35:55.172Z,4.10
2022-09-13T03:36:55.127Z,4.00
2022-09-13T03:37:55.087Z,4.10
2022-09-13T03:38:55.055Z,4.20
2022-09-13T03:39:55.032Z,4.00
2022-09-13T03:40:54.974Z,3.70
2022-09-13T03:41:54.954Z,4.00
2022-09-13T03:42:54.902Z,4.20
2022-09-13T03:43:54.861Z,3.80
2022-09-13T03:44:54.825Z,4.10
2022-09-13T03:45:54.840Z,4.30
2022-09-13T03:46:54.752Z,4.10
2022-09-13T03:47:54.938Z,3.90
2022-09-13T03:48:54.676Z,3.90
2022-09-13T03:49:54.638Z,4.00
2022-09-13T03:50:54.603Z,3.80
2022-09-13T03:51:54.560Z,4.00
2022-09-13T03:52:54.523Z,3.80
2022-09-13T03:53:54.502Z,3.90
2022-09-13T03:54:54.451Z,3.80
2022-09-13T03:55:54.412Z,3.70
2022-09-13T03:56:54.374Z,4.00
2022-09-13T03:57:54.336Z,3.90
2022-09-13T03:58:54.298Z,3.80
2022-09-13T03:59:54.273Z,3.80
2022-09-13T04:00:54.264Z,3.80
2022-09-13T04:01:54.271Z,3.70
2022-09-13T04:02:54.147Z,3.90
2022-09-13T04:03:56.835Z,3.80
2022-09-13T04:04:54.076Z,4.10
2022-09-13T04:05:54.047Z,4.00
2022-09-13T04:06:53.997Z,3.40
2022-09-13T04:07:53.969Z,3.70
2022-09-13T04:08:53.920Z,3.70
2022-09-13T04:09:53.898Z,3.60
2022-09-13T04:10:53.847Z,3.60
2022-09-13T04:11:53.808Z,3.90
2022-09-13T04:12:53.770Z,3.70
2022-09-13T04:13:53.735Z,3.70
2022-09-13T04:14:53.710Z,3.60
2022-09-13T04:15:53.656Z,3.70
2022-09-13T04:16:53.620Z,3.50
2022-09-13T04:17:53.592Z,3.30
2022-09-13T04:18:53.546Z,3.60
2022-09-13T04:19:53.507Z,3.50
2022-09-13T04:20:53.471Z,3.30
2022-09-13T04:21:53.431Z,3.50
2022-09-13T04:22:53.889Z,3.40
2022-09-13T04:23:53.373Z,3.60
2022-09-13T04:24:53.320Z,3.70
2022-09-13T04:25:53.282Z,3.70
2022-09-13T04:26:53.245Z,3.80
2022-09-13T04:27:53.204Z,3.60
2022-09-13T04:28:53.169Z,3.70
2022-09-13T04:29:53.210Z,3.60
2022-09-13T04:30:53.092Z,3.70
2022-09-13T04:31:53.101Z,4.20
2022-09-13T04:32:53.022Z,4.40
2022-09-13T04:33:52.985Z,3.90
2022-09-13T04:34:52.943Z,4.20
2022-09-13T04:35:52.921Z,3.80
2022-09-13T04:36:52.870Z,4.00
2022-09-13T04:37:52.832Z,4.00
2022-09-13T04:38:52.797Z,4.20
2022-09-13T04:39:52.773Z,5.60
2022-09-13T04:40:52.719Z,7.90
2022-09-13T04:41:52.691Z,5.60
2022-09-13T04:42:52.643Z,6.40
2022-09-13T04:43:52.629Z,4.50
2022-09-13T04:44:52.570Z,4.10
2022-09-13T04:45:52.595Z,4.20
2022-09-13T04:46:52.498Z,4.00
2022-09-13T04:47:52.475Z,4.60
2022-09-13T04:48:52.417Z,4.10
2022-09-13T04:49:52.381Z,4.00
2022-09-13T04:50:52.342Z,4.20
2022-09-13T04:51:52.304Z,4.40
2022-09-13T04:52:52.265Z,4.60
2022-09-13T04:53:52.243Z,4.40
2022-09-13T04:54:52.196Z,4.40
2022-09-13T04:55:52.155Z,4.30
2022-09-13T04:56:52.118Z,4.10
2022-09-13T04:57:52.079Z,4.10
2022-09-13T04:58:52.056Z,4.30
2022-09-13T04:59:52.004Z,4.40
2022-09-13T05:00:52.010Z,4.50
2022-09-13T05:01:52.040Z,4.60
2022-09-13T05:02:51.889Z,4.60
2022-09-13T05:03:51.855Z,4.50
2022-09-13T05:04:51.829Z,4.60
2022-09-13T05:05:51.777Z,4.70
2022-09-13T05:06:51.739Z,4.80
2022-09-13T05:07:51.702Z,5.10
2022-09-13T05:08:51.664Z,4.60
2022-09-13T05:09:51.626Z,5.20
2022-09-13T05:10:51.603Z,5.40
2022-09-13T05:11:51.552Z,5.00
2022-09-13T05:12:51.512Z,4.70
2022-09-13T05:13:51.474Z,5.30
2022-09-13T05:14:51.437Z,5.00
2022-09-13T05:15:51.439Z,4.70
2022-09-13T05:16:51.372Z,4.80
2022-09-13T05:17:51.324Z,5.30
2022-09-13T05:18:51.415Z,4.80
2022-09-13T05:19:51.249Z,5.10
2022-09-13T05:20:51.209Z,4.90
2022-09-13T05:21:51.173Z,5.00
2022-09-13T05:22:51.147Z,4.80
2022-09-13T05:23:51.097Z,5.00
2022-09-13T05:24:51.059Z,5.00
2022-09-13T05:25:51.030Z,5.00
2022-09-13T05:26:50.985Z,5.20
2022-09-13T05:27:50.944Z,4.80
2022-09-13T05:28:51.024Z,4.60
2022-09-13T05:29:50.870Z,4.40
2022-09-13T05:30:50.910Z,4.80
2022-09-13T05:31:50.794Z,4.70
2022-09-13T05:32:50.757Z,5.00
2022-09-13T05:33:50.719Z,4.70
2022-09-13T05:34:50.699Z,5.00
2022-09-13T05:35:50.645Z,4.80
2022-09-13T05:36:54.083Z,5.00
2022-09-13T05:37:50.569Z,5.30
2022-09-13T05:39:01.640Z,5.60
2022-09-13T05:40:10.262Z,4.80
2022-09-13T05:40:50.518Z,5.70
2022-09-13T05:41:50.414Z,5.40
2022-09-13T05:42:50.379Z,5.10
2022-09-13T05:43:50.343Z,4.90
2022-09-13T05:44:50.302Z,5.30
2022-09-13T05:45:50.305Z,5.00
2022-09-13T05:46:50.239Z,5.00
2022-09-13T05:47:50.191Z,5.00
2022-09-13T05:48:50.317Z,4.70
2022-09-13T05:50:09.232Z,4.90
2022-09-13T05:50:58.720Z,5.20
2022-09-13T05:51:50.041Z,5.10
2022-09-13T05:52:50.015Z,5.20
2022-09-13T05:53:49.964Z,4.90
2022-09-13T05:54:49.929Z,5.40
2022-09-13T05:55:49.887Z,5.10
2022-09-13T05:56:49.860Z,5.00
2022-09-13T05:57:49.815Z,5.20
2022-09-13T05:58:49.881Z,5.10
2022-09-13T05:59:49.739Z,5.10
2022-09-13T06:00:49.702Z,5.10
2022-09-13T06:01:49.681Z,4.70
2022-09-13T06:02:49.708Z,4.60
2022-09-13T06:03:49.589Z,5.00
2022-09-13T06:04:49.561Z,4.60
2022-09-13T06:05:49.514Z,4.40
2022-09-13T06:06:49.475Z,4.70
2022-09-13T06:07:49.439Z,4.40
2022-09-13T06:08:49.516Z,4.30
2022-09-13T06:09:49.365Z,4.60
2022-09-13T06:10:49.325Z,4.70
2022-09-13T06:11:49.286Z,4.70
2022-09-13T06:12:49.253Z,5.00
2022-09-13T06:13:49.211Z,4.70
2022-09-13T06:14:49.188Z,4.30
2022-09-13T06:15:49.188Z,4.70
2022-09-13T06:16:49.099Z,4.40
2022-09-13T06:17:49.063Z,4.50
2022-09-13T06:18:49.199Z,4.30
2022-09-13T06:19:48.987Z,4.30
2022-09-13T06:20:48.960Z,4.60
2022-09-13T06:21:48.983Z,4.70
2022-09-13T06:22:48.875Z,4.30
2022-09-13T06:23:48.838Z,4.60
2022-09-13T06:24:48.800Z,4.80
2022-09-13T06:25:48.765Z,4.70
2022-09-13T06:26:48.739Z,4.40
2022-09-13T06:27:50.138Z,4.50
2022-09-13T06:28:48.881Z,4.70
2022-09-13T06:29:48.616Z,4.60
2022-09-13T06:30:48.577Z,4.90
2022-09-13T06:31:48.540Z,4.70
2022-09-13T06:32:48.518Z,5.00
2022-09-13T06:33:48.468Z,4.70
2022-09-13T06:34:48.431Z,4.80
2022-09-13T06:35:48.393Z,4.70
2022-09-13T06:36:48.359Z,4.80
2022-09-13T06:37:48.331Z,4.60
2022-09-13T06:38:48.391Z,4.70
2022-09-13T06:39:48.287Z,5.10
2022-09-13T06:40:48.209Z,4.60
2022-09-13T06:41:48.173Z,4.20
2022-09-13T06:42:48.135Z,4.60
2022-09-13T06:43:48.103Z,4.60
2022-09-13T06:44:48.070Z,4.50
2022-09-13T06:45:48.093Z,4.40
2022-09-13T06:46:48.019Z,4.30
2022-09-13T06:47:47.960Z,4.50
2022-09-13T06:48:47.995Z,4.00
2022-09-13T06:49:47.889Z,4.50
2022-09-13T06:50:47.839Z,4.20
2022-09-13T06:51:47.805Z,4.50
2022-09-13T06:52:47.766Z,4.40
2022-09-13T06:53:47.734Z,4.30
2022-09-13T06:54:47.695Z,4.70
2022-09-13T06:55:47.671Z,4.30
2022-09-13T06:56:47.621Z,4.40
2022-09-13T06:57:47.587Z,4.30
2022-09-13T06:58:47.550Z,4.30
2022-09-13T06:59:47.516Z,4.70
2022-09-13T07:00:47.657Z,4.70
2022-09-13T07:01:47.572Z,4.60
2022-09-13T07:02:47.403Z,4.70
2022-09-13T07:03:47.368Z,4.40
2022-09-13T07:04:47.347Z,4.90
2022-09-13T07:05:47.299Z,4.60
2022-09-13T07:06:47.272Z,4.50
2022-09-13T07:07:47.225Z,4.20
2022-09-13T07:08:47.184Z,4.80
2022-09-13T07:09:47.233Z,4.70
2022-09-13T07:10:47.116Z,4.60
2022-09-13T07:11:47.083Z,4.60
2022-09-13T07:12:47.052Z,4.40
2022-09-13T07:13:47.002Z,4.30
2022-09-13T07:14:46.964Z,4.40
2022-09-13T07:15:46.994Z,4.60
2022-09-13T07:16:46.910Z,4.30
2022-09-13T07:17:46.861Z,4.40
2022-09-13T07:18:46.821Z,4.50
2022-09-13T07:19:46.787Z,4.50
2022-09-13T07:20:46.750Z,4.30
2022-09-13T07:21:46.711Z,4.80
2022-09-13T07:22:46.685Z,4.30
2022-09-13T07:23:46.639Z,4.20
2022-09-13T07:24:46.615Z,4.30
2022-09-13T07:25:46.566Z,4.80
2022-09-13T07:26:46.533Z,4.60
2022-09-13T07:27:46.496Z,4.50
2022-09-13T07:28:46.485Z,4.30
2022-09-13T07:29:46.423Z,4.30
2022-09-13T07:30:46.448Z,4.30
2022-09-13T07:31:46.349Z,4.30
2022-09-13T07:32:46.314Z,4.60
2022-09-13T07:33:46.279Z,4.30
2022-09-13T07:34:46.242Z,4.20
2022-09-13T07:35:46.206Z,4.10
2022-09-13T07:36:46.181Z,4.20
2022-09-13T07:37:46.134Z,4.00
2022-09-13T07:38:46.203Z,4.30
2022-09-13T07:39:46.108Z,4.10
2022-09-13T07:40:46.032Z,4.10
2022-09-13T07:41:45.991Z,4.10
2022-09-13T07:42:45.968Z,4.10
2022-09-13T07:43:45.918Z,4.00
2022-09-13T07:44:45.882Z,3.80
2022-09-13T07:45:45.846Z,4.10
2022-09-13T07:46:45.822Z,4.00
2022-09-13T07:47:45.774Z,3.90
2022-09-13T07:48:45.814Z,4.00
2022-09-13T07:49:45.706Z,4.20
2022-09-13T07:50:45.668Z,3.90
2022-09-13T07:51:45.638Z,3.70
2022-09-13T07:52:45.597Z,3.50
2022-09-13T07:53:45.563Z,4.10
2022-09-13T07:54:45.549Z,4.00
2022-09-13T07:55:45.492Z,4.20
2022-09-13T07:56:53.540Z,3.80
2022-09-13T07:57:45.422Z,3.90
2022-09-13T07:58:45.385Z,4.00
2022-09-13T07:59:45.351Z,4.00
2022-09-13T08:00:45.326Z,4.10
2022-09-13T08:01:45.376Z,3.80
2022-09-13T08:02:45.288Z,3.80
2022-09-13T08:03:45.276Z,3.90
2022-09-13T08:04:45.179Z,4.10
2022-09-13T08:05:45.141Z,4.10
2022-09-13T08:06:45.117Z,4.20
2022-09-13T08:07:45.074Z,4.20
2022-09-13T08:08:45.034Z,4.20
2022-09-13T08:09:45.000Z,4.30
2022-09-13T08:10:49.278Z,4.00
2022-09-13T08:11:44.933Z,4.10
2022-09-13T08:12:44.907Z,4.00
2022-09-13T08:13:44.860Z,4.10
2022-09-13T08:14:44.829Z,3.80
2022-09-13T08:15:44.868Z,4.00
2022-09-13T08:16:44.756Z,3.90
2022-09-13T08:17:44.721Z,4.10
2022-09-13T08:18:44.700Z,4.10
2022-09-13T08:19:44.651Z,3.50
2022-09-13T08:20:44.621Z,3.90
2022-09-13T08:21:44.586Z,3.90
2022-09-13T08:22:44.554Z,3.80
2022-09-13T08:23:44.519Z,4.00
2022-09-13T08:24:44.492Z,3.60
2022-09-13T08:25:44.467Z,3.70
2022-09-13T08:26:44.416Z,3.90
2022-09-13T08:27:44.381Z,3.90
2022-09-13T08:28:44.352Z,3.70
2022-09-13T08:29:44.312Z,3.70
2022-09-13T08:30:44.322Z,3.60
2022-09-13T08:31:44.251Z,3.50
2022-09-13T08:32:44.217Z,4.00
2022-09-13T08:33:46.481Z,4.00
2022-09-13T08:34:44.148Z,3.50
2022-09-13T08:35:44.120Z,4.00
2022-09-13T08:36:44.103Z,3.60
2022-09-13T08:37:44.050Z,3.70
2022-09-13T08:38:44.018Z,3.60
2022-09-13T08:39:44.028Z,3.60
2022-09-13T08:40:43.978Z,4.10
2022-09-13T08:41:43.923Z,3.70
2022-09-13T08:42:43.891Z,3.90
2022-09-13T08:43:43.863Z,4.10
2022-09-13T08:44:43.890Z,3.90
2022-09-13T08:45:43.792Z,3.80
2022-09-13T08:46:43.757Z,3.90
2022-09-13T08:47:43.720Z,3.50
2022-09-13T08:48:43.700Z,3.40
2022-09-13T08:49:43.673Z,3.70
2022-09-13T08:50:43.639Z,3.50
2022-09-13T08:51:43.604Z,3.50
2022-09-13T08:52:43.560Z,3.10
2022-09-13T08:53:43.530Z,3.20
2022-09-13T08:54:43.509Z,3.20
2022-09-13T08:55:43.462Z,3.20
2022-09-13T08:56:43.436Z,3.40
2022-09-13T08:57:43.412Z,3.60
2022-09-13T08:58:43.367Z,3.20
2022-09-13T08:59:43.335Z,3.40
2022-09-13T09:00:43.317Z,3.50
2022-09-13T09:01:43.336Z,3.20
2022-09-13T09:02:43.262Z,3.30
2022-09-13T09:03:43.263Z,3.20
2022-09-13T09:04:43.178Z,3.40
2022-09-13T09:05:43.175Z,3.40
2022-09-13T09:06:43.114Z,3.40
2022-09-13T09:07:43.081Z,3.30
2022-09-13T09:08:43.049Z,3.40
2022-09-13T09:09:43.019Z,3.30
2022-09-13T09:10:42.994Z,3.20
2022-09-13T09:11:42.974Z,3.50
2022-09-13T09:12:42.925Z,3.40
2022-09-13T09:13:42.953Z,3.40
2022-09-13T09:14:42.863Z,3.20
2022-09-13T09:15:42.854Z,3.10
2022-09-13T09:16:42.815Z,3.20
2022-09-13T09:17:42.773Z,3.90
2022-09-13T09:18:42.742Z,3.90
2022-09-13T09:19:42.711Z,4.30
2022-09-13T09:20:42.680Z,4.10
2022-09-13T09:21:42.687Z,3.90
2022-09-13T09:22:42.617Z,4.00
2022-09-13T09:23:42.679Z,4.30
2022-09-13T09:24:42.555Z,4.10
2022-09-13T09:25:42.525Z,4.10
2022-09-13T09:26:42.495Z,4.10
2022-09-13T09:27:42.475Z,4.30
2022-09-13T09:28:42.433Z,4.00
2022-09-13T09:29:42.402Z,4.10
2022-09-13T09:30:42.405Z,4.00
2022-09-13T09:31:42.343Z,4.40
2022-09-13T09:32:42.329Z,4.90
2022-09-13T09:33:42.349Z,4.30
2022-09-13T09:34:42.250Z,4.70
2022-09-13T09:35:42.218Z,4.40
2022-09-13T09:36:42.188Z,4.20
2022-09-13T09:37:42.161Z,4.60
2022-09-13T09:38:42.134Z,4.50
2022-09-13T09:39:42.109Z,4.60
2022-09-13T09:40:42.064Z,4.30
2022-09-13T09:41:42.031Z,4.60
2022-09-13T09:42:42.002Z,4.90
2022-09-13T09:43:42.031Z,4.60
2022-09-13T09:44:41.942Z,4.10
2022-09-13T09:45:41.985Z,4.00
2022-09-13T09:46:41.881Z,4.00
2022-09-13T09:47:41.850Z,4.30
2022-09-13T09:48:41.885Z,4.00
2022-09-13T09:49:41.795Z,4.60
2022-09-13T09:50:41.757Z,4.70
2022-09-13T09:51:41.728Z,4.10
2022-09-13T09:52:41.697Z,3.90
2022-09-13T09:53:41.677Z,3.70
2022-09-13T09:54:41.640Z,4.10
2022-09-13T09:55:41.603Z,4.20
2022-09-13T09:56:41.575Z,4.60
2022-09-13T09:57:41.559Z,4.10
2022-09-13T09:58:41.534Z,4.10
2022-09-13T09:59:41.487Z,4.20
2022-09-13T10:00:41.452Z,4.60
2022-09-13T10:01:41.438Z,5.10
2022-09-13T10:02:41.415Z,5.00
2022-09-13T10:03:41.498Z,5.10
2022-09-13T10:04:41.344Z,4.90
2022-09-13T10:05:41.302Z,4.80
2022-09-13T10:06:41.272Z,4.30
2022-09-13T10:07:41.242Z,4.20
2022-09-13T10:08:41.211Z,4.30
2022-09-13T10:09:41.211Z,4.40
2022-09-13T10:10:41.153Z,4.60
2022-09-13T10:11:41.118Z,4.40
2022-09-13T10:12:41.090Z,5.00
2022-09-13T10:13:41.091Z,4.60
2022-09-13T10:14:41.042Z,4.70
2022-09-13T10:15:41.016Z,4.60
2022-09-13T10:16:41.009Z,4.60
2022-09-13T10:17:40.946Z,4.40
2022-09-13T10:18:44.369Z,5.20
2022-09-13T10:19:40.884Z,4.40
2022-09-13T10:20:40.848Z,4.40
2022-09-13T10:21:40.823Z,4.30
2022-09-13T10:22:40.802Z,4.30
2022-09-13T10:23:40.759Z,4.70
2022-09-13T10:24:40.731Z,4.00
2022-09-13T10:25:43.675Z,4.70
2022-09-13T10:26:40.680Z,4.60
2022-09-13T10:27:40.642Z,4.50
2022-09-13T10:28:40.631Z,5.10
2022-09-13T10:29:40.585Z,5.30
2022-09-13T10:30:40.616Z,4.20
2022-09-13T10:31:40.531Z,4.50
2022-09-13T10:32:40.499Z,4.70
2022-09-13T10:33:40.469Z,4.10
2022-09-13T10:34:40.457Z,4.00
2022-09-13T10:35:40.412Z,4.50
2022-09-13T10:36:52.113Z,4.70
2022-09-13T10:37:40.355Z,4.30
2022-09-13T10:38:48.605Z,3.90
2022-09-13T10:39:40.336Z,4.50
2022-09-13T10:40:40.284Z,5.00
2022-09-13T10:41:40.242Z,4.60
2022-09-13T10:42:40.212Z,4.70
2022-09-13T10:43:40.183Z,4.90
2022-09-13T10:44:40.160Z,4.90
2022-09-13T10:45:40.174Z,4.80
2022-09-13T10:46:40.099Z,4.90
2022-09-13T10:47:40.070Z,4.90
2022-09-13T10:48:40.046Z,5.00
2022-09-13T10:49:40.048Z,5.00
2022-09-13T10:50:39.987Z,4.20
2022-09-13T10:51:39.967Z,4.10
2022-09-13T10:52:39.934Z,3.70
2022-09-13T10:53:39.906Z,4.00
2022-09-13T10:54:39.876Z,3.50
2022-09-13T10:55:39.843Z,3.90
2022-09-13T10:56:39.817Z,3.90
2022-09-13T10:57:39.802Z,3.70
2022-09-13T10:58:39.761Z,3.70
2022-09-13T10:59:39.729Z,3.60
2022-09-13T11:00:39.707Z,3.50
2022-09-13T11:01:40.556Z,3.30
2022-09-13T11:02:39.647Z,3.40
2022-09-13T11:03:39.626Z,3.40
2022-09-13T11:04:39.592Z,3.20
2022-09-13T11:05:39.565Z,3.80
2022-09-13T11:06:39.534Z,3.30
2022-09-13T11:07:39.504Z,3.20
2022-09-13T11:08:39.492Z,3.20
2022-09-13T11:09:39.451Z,3.20
2022-09-13T11:10:39.427Z,3.10
2022-09-13T11:11:39.393Z,3.50
2022-09-13T11:12:39.375Z,3.30
2022-09-13T11:13:41.900Z,3.30
2022-09-13T11:14:39.319Z,3.40
2022-09-13T11:15:39.275Z,3.60
2022-09-13T11:16:39.280Z,3.20
2022-09-13T11:17:39.218Z,3.10
2022-09-13T11:18:39.194Z,2.90
2022-09-13T11:19:39.173Z,2.70
2022-09-13T11:20:39.140Z,3.00
2022-09-13T11:21:39.108Z,2.70
2022-09-13T11:22:39.070Z,2.90
2022-09-13T11:23:39.042Z,3.00
2022-09-13T11:24:39.038Z,2.90
2022-09-13T11:25:38.990Z,3.10
2022-09-13T11:26:38.950Z,3.00
2022-09-13T11:27:38.922Z,2.60
2022-09-13T11:28:38.891Z,2.80
2022-09-13T11:29:38.861Z,3.00
2022-09-13T11:30:38.840Z,3.00
2022-09-13T11:31:38.864Z,2.80
2022-09-13T11:32:38.771Z,2.90
2022-09-13T11:33:38.738Z,2.60
2022-09-13T11:34:38.708Z,3.40
2022-09-13T11:35:38.684Z,3.00
2022-09-13T11:36:38.659Z,3.00
2022-09-13T11:37:38.620Z,2.90
2022-09-13T11:38:38.590Z,2.90
2022-09-13T11:39:38.558Z,3.50
2022-09-13T11:40:38.525Z,3.40
2022-09-13T11:41:38.508Z,3.30
2022-09-13T11:42:38.477Z,3.40
2022-09-13T11:43:38.553Z,3.00
2022-09-13T11:44:38.407Z,3.10
2022-09-13T11:45:38.406Z,2.70
2022-09-13T11:46:38.345Z,2.90
2022-09-13T11:47:38.318Z,2.90
2022-09-13T11:48:38.297Z,2.90
2022-09-13T11:49:38.257Z,2.90
2022-09-13T11:50:38.230Z,3.10
2022-09-13T11:51:38.196Z,3.30
2022-09-13T11:52:38.169Z,3.20
2022-09-13T11:53:38.138Z,3.40
2022-09-13T11:54:38.124Z,3.20
2022-09-13T11:55:38.079Z,3.20
2022-09-13T11:56:38.114Z,3.10
2022-09-13T11:57:38.020Z,3.10
2022-09-13T11:58:37.988Z,2.90
2022-09-13T11:59:37.960Z,2.80
2022-09-13T12:00:37.940Z,3.10
2022-09-13T12:01:37.900Z,3.30
2022-09-13T12:02:37.942Z,3.70
2022-09-13T12:03:37.839Z,3.10
2022-09-13T12:04:37.812Z,3.20
2022-09-13T12:05:37.799Z,3.10
2022-09-13T12:06:37.757Z,3.10
2022-09-13T12:07:37.724Z,3.00
2022-09-13T12:08:37.692Z,2.60
2022-09-13T12:09:37.662Z,3.60
2022-09-13T12:10:37.635Z,3.80
2022-09-13T12:11:37.616Z,3.80
2022-09-13T12:12:37.590Z,3.30
2022-09-13T12:13:37.595Z,3.20
2022-09-13T12:14:37.520Z,2.80
2022-09-13T12:15:37.484Z,3.30
2022-09-13T12:16:37.471Z,3.50
2022-09-13T12:17:37.461Z,2.90
2022-09-13T12:18:37.393Z,3.00
2022-09-13T12:19:37.365Z,3.10
2022-09-13T12:20:37.332Z,2.70
2022-09-13T12:21:37.302Z,2.70
2022-09-13T12:22:37.290Z,3.10
2022-09-13T12:23:37.245Z,3.40
2022-09-13T12:24:37.213Z,3.10
2022-09-13T12:25:37.187Z,3.00
2022-09-13T12:26:37.157Z,3.30
2022-09-13T12:27:39.976Z,2.90
2022-09-13T12:28:37.115Z,2.80
2022-09-13T12:29:37.064Z,3.30
2022-09-13T12:30:37.035Z,2.90
2022-09-13T12:31:37.029Z,2.70
2022-09-13T12:32:36.988Z,3.30
2022-09-13T12:33:36.954Z,4.00
2022-09-13T12:34:36.922Z,3.70
2022-09-13T12:35:36.890Z,4.20
2022-09-13T12:36:36.858Z,4.00
2022-09-13T12:37:36.832Z,3.70
2022-09-13T12:38:36.810Z,3.40
2022-09-13T12:39:36.775Z,3.10
2022-09-13T12:40:36.741Z,3.00
2022-09-13T12:41:36.719Z,3.10
2022-09-13T12:42:36.687Z,2.80
2022-09-13T12:43:36.676Z,2.80
2022-09-13T12:44:36.649Z,2.90
2022-09-13T12:45:36.651Z,2.60
2022-09-13T12:46:36.574Z,3.00
2022-09-13T12:47:36.541Z,2.30
2022-09-13T12:48:36.510Z,2.30
2022-09-13T12:49:36.503Z,2.10
2022-09-13T12:50:43.583Z,1.70
2022-09-13T12:51:36.425Z,2.10
2022-09-13T12:52:36.395Z,2.30
2022-09-13T12:53:36.367Z,2.10
2022-09-13T12:54:36.341Z,1.90
2022-09-13T12:55:47.151Z,2.20
2022-09-13T12:56:36.279Z,2.30
2022-09-13T12:57:36.250Z,2.50
2022-09-13T12:58:36.222Z,2.20
2022-09-13T12:59:36.195Z,2.30
2022-09-13T13:00:36.254Z,2.30
2022-09-13T13:01:36.298Z,2.20
2022-09-13T13:02:36.109Z,2.20
2022-09-13T13:03:36.076Z,2.00
2022-09-13T13:04:36.057Z,1.80
2022-09-13T13:05:36.018Z,2.40
2022-09-13T13:06:36.001Z,2.40
2022-09-13T13:07:35.961Z,2.30
2022-09-13T13:08:35.929Z,2.40
2022-09-13T13:09:35.898Z,2.40
2022-09-13T13:10:35.871Z,2.30
2022-09-13T13:11:35.849Z,2.50
2022-09-13T13:12:35.808Z,2.60
2022-09-13T13:13:35.778Z,3.10
2022-09-13T13:14:35.747Z,2.80
2022-09-13T13:15:35.720Z,3.50
2022-09-13T13:16:35.759Z,3.10
2022-09-13T13:17:35.678Z,3.10